Time;durP1;ratioP1;P1;durP2;ratioP2;P2;SDS_P1;SDS_P2;PMS_P1;PMS_P2;Temp;Humidity;BMP_temperature;BMP_pressure;BME280_temperature;BME280_humidity;BME280_pressure;Samples;Min_cycle;Max_cycle;Signal;HPM_P1;HPM_P2
2022/08/15 00:00:33;;;;;;;;;12.00;12.00;;;;;;;;5074106;28;45175;-62
2022/08/15 00:02:58;;;;;;;;;10.25;9.75;;;;;;;;5055057;28;45360;-62
2022/08/15 00:05:23;;;;;;;;;11.25;11.25;;;;;;;;5073272;28;45634;-61
2022/08/15 00:07:50;;;;;;;;;12.25;12.25;;;;;;;;5073743;28;45305;-61
2022/08/15 00:10:17;;;;;;;;;13.50;12.50;;;;;;;;5073169;28;45531;-62
2022/08/15 00:12:43;;;;;;;;;12.75;11.75;;;;;;;;5073975;28;45468;-62
2022/08/15 00:15:09;;;;;;;;;12.75;12.75;;;;;;;;5073558;28;45780;-62
2022/08/15 00:17:35;;;;;;;;;12.00;12.00;;;;;;;;5073314;28;45422;-61
2022/08/15 00:20:00;;;;;;;;;11.25;11.25;;;;;;;;5073648;28;45435;-62
2022/08/15 00:22:25;;;;;;;;;14.75;14.50;;;;;;;;5073236;28;45346;-61
2022/08/15 00:24:51;;;;;;;;;15.75;15.75;;;;;;;;5073550;28;46746;-62
2022/08/15 00:27:16;;;;;;;;;17.50;17.50;;;;;;;;5073407;27;45439;-62
2022/08/15 00:29:42;;;;;;;;;14.75;13.50;;;;;;;;5073801;28;45381;-62
2022/08/15 00:32:11;;;;;;;;;16.50;16.00;;;;;;;;5055327;28;45502;-62
2022/08/15 00:34:37;;;;;;;;;13.75;13.75;;;;;;;;5055217;27;46344;-62
2022/08/15 00:37:05;;;;;;;;;14.50;14.50;;;;;;;;5073133;28;45324;-62
2022/08/15 00:39:31;;;;;;;;;13.50;12.50;;;;;;;;5073404;28;45335;-61
2022/08/15 00:41:58;;;;;;;;;16.50;15.50;;;;;;;;5055091;28;45550;-62
2022/08/15 00:44:33;;;;;;;;;14.25;14.00;;;;;;;;5072892;28;45661;-62
2022/08/15 00:47:00;;;;;;;;;16.50;15.25;;;;;;;;5072618;28;45465;-62
2022/08/15 00:49:27;;;;;;;;;18.00;16.50;;;;;;;;5073019;28;45300;-62
2022/08/15 00:51:54;;;;;;;;;20.00;20.00;;;;;;;;5073475;28;45244;-62
2022/08/15 00:54:28;;;;;;;;;16.50;14.75;;;;;;;;5073196;28;45869;-63
2022/08/15 00:57:05;;;;;;;;;15.50;15.50;;;;;;;;5054088;28;46641;-63
2022/08/15 00:59:33;;;;;;;;;15.50;13.75;;;;;;;;5054396;28;45367;-62
2022/08/15 01:02:01;;;;;;;;;15.00;15.00;;;;;;;;5073604;28;45354;-62
2022/08/15 01:04:27;;;;;;;;;20.00;17.50;;;;;;;;5072958;28;45565;-61
2022/08/15 01:06:52;;;;;;;;;16.50;15.50;;;;;;;;5072619;28;45816;-61
2022/08/15 01:09:18;;;;;;;;;13.25;13.25;;;;;;;;5072587;28;45350;-62
2022/08/15 01:11:47;;;;;;;;;14.25;12.50;;;;;;;;5073067;28;45348;-61
2022/08/15 01:14:13;;;;;;;;;20.50;17.25;;;;;;;;5071535;28;45712;-62
2022/08/15 01:16:41;;;;;;;;;16.00;16.00;;;;;;;;5055017;28;46357;-61
2022/08/15 01:19:26;;;;;;;;;22.00;17.25;;;;;;;;5073427;28;45345;-61
2022/08/15 01:22:00;;;;;;;;;18.75;17.50;;;;;;;;5073539;27;45305;-60
2022/08/15 01:24:37;;;;;;;;;16.50;14.25;;;;;;;;5073271;27;45416;-60
2022/08/15 01:27:02;;;;;;;;;19.00;17.75;;;;;;;;5073420;28;45451;-61
2022/08/15 01:29:28;;;;;;;;;20.75;19.50;;;;;;;;5073156;27;45323;-62
2022/08/15 01:31:53;;;;;;;;;13.50;13.50;;;;;;;;5073504;28;45365;-62
2022/08/15 01:34:18;;;;;;;;;19.25;18.00;;;;;;;;5073381;28;47110;-62
2022/08/15 01:36:44;;;;;;;;;21.00;16.00;;;;;;;;5073333;28;45468;-61
2022/08/15 01:39:09;;;;;;;;;20.00;17.00;;;;;;;;5073448;28;45355;-62
2022/08/15 01:41:48;;;;;;;;;21.75;21.00;;;;;;;;5055216;27;45336;-61
2022/08/15 01:44:13;;;;;;;;;17.25;17.25;;;;;;;;5073011;28;46364;-61
2022/08/15 01:46:47;;;;;;;;;16.50;16.50;;;;;;;;5073205;27;45328;-61
2022/08/15 01:49:16;;;;;;;;;19.25;18.00;;;;;;;;5073050;28;45443;-61
2022/08/15 01:51:42;;;;;;;;;19.75;17.75;;;;;;;;5073055;28;46253;-61
2022/08/15 01:54:10;;;;;;;;;15.50;13.25;;;;;;;;5072933;28;45760;-61
2022/08/15 01:56:40;;;;;;;;;17.00;16.00;;;;;;;;5072997;28;45419;-61
2022/08/15 01:59:07;;;;;;;;;20.75;19.50;;;;;;;;5073145;28;45409;-61
2022/08/15 02:01:36;;;;;;;;;20.25;19.00;;;;;;;;5072734;28;45377;-61
2022/08/15 02:04:01;;;;;;;;;17.25;14.50;;;;;;;;5072783;27;46599;-61
2022/08/15 02:06:29;;;;;;;;;20.00;18.00;;;;;;;;5072648;28;45507;-61
2022/08/15 02:08:55;;;;;;;;;15.25;15.25;;;;;;;;5073015;28;45371;-61
2022/08/15 02:11:22;;;;;;;;;20.75;20.25;;;;;;;;5072818;28;45351;-61
2022/08/15 02:13:48;;;;;;;;;17.25;13.50;;;;;;;;5072779;28;46504;-61
2022/08/15 02:16:15;;;;;;;;;19.50;18.75;;;;;;;;5072765;28;45309;-60
2022/08/15 02:18:40;;;;;;;;;21.25;19.50;;;;;;;;5054729;28;45323;-61
2022/08/15 02:21:05;;;;;;;;;18.00;18.00;;;;;;;;5072731;28;45363;-61
2022/08/15 02:23:31;;;;;;;;;19.50;18.50;;;;;;;;5072261;27;45410;-60
2022/08/15 02:25:56;;;;;;;;;20.75;18.50;;;;;;;;5056677;28;45426;-61
2022/08/15 02:28:22;;;;;;;;;23.00;18.75;;;;;;;;5075896;27;45427;-60
2022/08/15 02:30:48;;;;;;;;;21.50;18.50;;;;;;;;5075634;28;45380;-61
2022/08/15 02:33:13;;;;;;;;;20.50;18.25;;;;;;;;5075536;28;46192;-60
2022/08/15 02:35:39;;;;;;;;;19.25;18.25;;;;;;;;5075507;28;45329;-60
2022/08/15 02:38:05;;;;;;;;;21.25;19.00;;;;;;;;5075800;28;45358;-60
2022/08/15 02:40:31;;;;;;;;;19.25;15.75;;;;;;;;5075714;28;45326;-60
2022/08/15 02:43:00;;;;;;;;;18.25;18.25;;;;;;;;5075180;28;45316;-60
2022/08/15 02:45:26;;;;;;;;;22.25;22.25;;;;;;;;5075352;28;45372;-60
2022/08/15 02:47:52;;;;;;;;;19.25;16.00;;;;;;;;5075438;28;45408;-60
2022/08/15 02:50:19;;;;;;;;;20.75;20.75;;;;;;;;5075489;28;45342;-61
2022/08/15 02:52:49;;;;;;;;;18.75;18.50;;;;;;;;5075339;28;46458;-60
2022/08/15 02:55:15;;;;;;;;;17.75;17.75;;;;;;;;5075395;28;45461;-61
2022/08/15 02:57:40;;;;;;;;;19.50;18.50;;;;;;;;5075329;28;45825;-60
2022/08/15 03:00:07;;;;;;;;;22.25;21.00;;;;;;;;5075599;28;45333;-61
2022/08/15 03:02:47;;;;;;;;;21.50;21.50;;;;;;;;5075200;28;46475;-61
2022/08/15 03:05:13;;;;;;;;;19.75;18.75;;;;;;;;5074981;28;45424;-61
2022/08/15 03:07:38;;;;;;;;;19.75;15.75;;;;;;;;5075039;27;45368;-60
2022/08/15 03:10:03;;;;;;;;;16.75;16.00;;;;;;;;5075473;27;45150;-60
2022/08/15 03:12:29;;;;;;;;;24.25;20.75;;;;;;;;5075105;28;45813;-60
2022/08/15 03:14:56;;;;;;;;;19.50;19.50;;;;;;;;5075133;28;45432;-61
2022/08/15 03:17:21;;;;;;;;;16.25;16.25;;;;;;;;5075349;28;45369;-60
2022/08/15 03:19:48;;;;;;;;;19.75;17.75;;;;;;;;5057063;28;45499;-61
2022/08/15 03:22:13;;;;;;;;;21.50;21.50;;;;;;;;5074906;27;46451;-61
2022/08/15 03:24:42;;;;;;;;;17.00;17.00;;;;;;;;5074904;28;45349;-61
2022/08/15 03:27:07;;;;;;;;;17.25;17.25;;;;;;;;5075009;28;45285;-61
2022/08/15 03:29:32;;;;;;;;;19.50;18.50;;;;;;;;5074847;27;45272;-61
2022/08/15 03:31:57;;;;;;;;;19.00;18.00;;;;;;;;5075081;28;46419;-60
2022/08/15 03:34:23;;;;;;;;;20.00;20.00;;;;;;;;5074775;27;45211;-61
2022/08/15 03:36:48;;;;;;;;;18.25;18.00;;;;;;;;5074128;28;45303;-61
2022/08/15 03:39:14;;;;;;;;;16.00;16.00;;;;;;;;5075179;27;45374;-61
2022/08/15 03:41:40;;;;;;;;;19.25;18.00;;;;;;;;5056761;28;45395;-60
2022/08/15 03:44:05;;;;;;;;;19.25;18.25;;;;;;;;5074537;28;45299;-61
2022/08/15 03:46:30;;;;;;;;;23.75;18.50;;;;;;;;5074927;27;45396;-61
2022/08/15 03:48:56;;;;;;;;;16.00;16.00;;;;;;;;5056466;28;45418;-60
2022/08/15 03:51:23;;;;;;;;;17.50;16.50;;;;;;;;5074641;28;47565;-61
2022/08/15 03:53:53;;;;;;;;;21.00;20.00;;;;;;;;5074447;28;45327;-61
2022/08/15 03:56:20;;;;;;;;;16.25;16.25;;;;;;;;5074770;28;45346;-61
2022/08/15 03:58:46;;;;;;;;;16.25;15.00;;;;;;;;5074751;28;45299;-60
2022/08/15 04:01:13;;;;;;;;;14.75;14.75;;;;;;;;5074361;28;45621;-60
2022/08/15 04:03:39;;;;;;;;;19.25;19.25;;;;;;;;5074418;28;45397;-60
2022/08/15 04:06:09;;;;;;;;;16.50;16.50;;;;;;;;5074378;28;45420;-61
2022/08/15 04:08:34;;;;;;;;;18.00;16.25;;;;;;;;5074805;28;45447;-60
2022/08/15 04:11:01;;;;;;;;;17.50;14.00;;;;;;;;5056207;27;46613;-60
2022/08/15 04:13:26;;;;;;;;;15.75;14.75;;;;;;;;5074332;28;45319;-61
2022/08/15 04:15:52;;;;;;;;;17.75;15.00;;;;;;;;5056229;28;45357;-60
2022/08/15 04:18:17;;;;;;;;;14.25;12.50;;;;;;;;5074423;28;45360;-60
2022/08/15 04:20:42;;;;;;;;;21.00;16.50;;;;;;;;5056118;28;48577;-61
2022/08/15 04:23:08;;;;;;;;;19.75;19.75;;;;;;;;5074222;27;45252;-60
2022/08/15 04:25:38;;;;;;;;;17.25;14.75;;;;;;;;5074276;28;45356;-61
2022/08/15 04:28:04;;;;;;;;;18.25;17.25;;;;;;;;5074271;28;45680;-60
2022/08/15 04:30:31;;;;;;;;;17.50;15.75;;;;;;;;5074022;28;45264;-61
2022/08/15 04:33:05;;;;;;;;;13.00;12.25;;;;;;;;5074250;28;45469;-61
2022/08/15 04:35:30;;;;;;;;;16.75;16.75;;;;;;;;5074273;28;45183;-61
2022/08/15 04:37:57;;;;;;;;;14.75;14.75;;;;;;;;5074318;28;45306;-61
2022/08/15 04:40:22;;;;;;;;;16.75;16.75;;;;;;;;5055849;27;46662;-61
2022/08/15 04:42:49;;;;;;;;;17.25;15.00;;;;;;;;5073826;27;45383;-61
2022/08/15 04:45:15;;;;;;;;;19.00;15.25;;;;;;;;5056281;28;45320;-61
2022/08/15 04:47:40;;;;;;;;;17.25;15.00;;;;;;;;5073950;28;45880;-61
2022/08/15 04:50:05;;;;;;;;;14.00;13.00;;;;;;;;5073936;28;46029;-61
2022/08/15 04:52:31;;;;;;;;;17.50;16.00;;;;;;;;5074096;27;45313;-61
2022/08/15 04:54:57;;;;;;;;;15.75;14.00;;;;;;;;5074216;27;45410;-61
2022/08/15 04:57:23;;;;;;;;;16.25;15.25;;;;;;;;5073917;28;45302;-61
2022/08/15 04:59:48;;;;;;;;;19.25;16.50;;;;;;;;5073700;28;45691;-61
2022/08/15 05:02:13;;;;;;;;;13.75;12.50;;;;;;;;5073851;28;45405;-61
2022/08/15 05:04:38;;;;;;;;;15.00;13.75;;;;;;;;5073791;28;45309;-61
2022/08/15 05:07:04;;;;;;;;;15.50;15.50;;;;;;;;5073897;28;45547;-61
2022/08/15 05:09:29;;;;;;;;;19.50;16.00;;;;;;;;5073591;28;45563;-61
2022/08/15 05:11:54;;;;;;;;;15.50;13.25;;;;;;;;5073894;28;45332;-61
2022/08/15 05:14:20;;;;;;;;;15.75;15.75;;;;;;;;5073888;27;45455;-61
2022/08/15 05:16:45;;;;;;;;;15.00;14.25;;;;;;;;5055734;27;45602;-61
2022/08/15 05:19:10;;;;;;;;;13.75;13.75;;;;;;;;5073680;27;46420;-61
2022/08/15 05:21:37;;;;;;;;;17.75;16.00;;;;;;;;5073612;28;45429;-60
2022/08/15 05:24:02;;;;;;;;;19.75;17.00;;;;;;;;5073386;27;45386;-61
2022/08/15 05:26:28;;;;;;;;;16.75;15.25;;;;;;;;5073453;28;45473;-60
2022/08/15 05:28:54;;;;;;;;;14.25;14.25;;;;;;;;5073396;28;46281;-60
2022/08/15 05:31:19;;;;;;;;;12.50;12.50;;;;;;;;5073403;28;45289;-60
2022/08/15 05:33:45;;;;;;;;;15.75;15.75;;;;;;;;5073638;27;45305;-61
2022/08/15 05:36:11;;;;;;;;;18.25;15.25;;;;;;;;5073613;28;45463;-60
2022/08/15 05:38:41;;;;;;;;;17.50;17.50;;;;;;;;5073149;28;46450;-61
2022/08/15 05:41:28;;;;;;;;;15.00;15.00;;;;;;;;5055123;28;45313;-61
2022/08/15 05:44:09;;;;;;;;;15.00;13.50;;;;;;;;5073373;28;45353;-60
2022/08/15 05:46:40;;;;;;;;;17.75;16.75;;;;;;;;5073350;27;45299;-63
2022/08/15 05:49:12;;;;;;;;;17.25;15.50;;;;;;;;5073077;28;46602;-63
2022/08/15 05:51:57;;;;;;;;;13.25;13.25;;;;;;;;5054706;28;46346;-63
2022/08/15 05:54:40;;;;;;;;;12.50;12.50;;;;;;;;5054893;28;45493;-63
2022/08/15 05:57:25;;;;;;;;;17.00;15.00;;;;;;;;5072991;28;45290;-63
2022/08/15 05:59:53;;;;;;;;;13.75;13.75;;;;;;;;5074940;28;45570;-63
2022/08/15 06:02:25;;;;;;;;;18.50;17.50;;;;;;;;5061475;27;45561;-63
2022/08/15 06:04:56;;;;;;;;;19.00;16.50;;;;;;;;5079664;28;45399;-64
2022/08/15 06:07:22;;;;;;;;;13.00;13.00;;;;;;;;5060811;28;45469;-63
2022/08/15 06:09:54;;;;;;;;;20.75;17.75;;;;;;;;5079227;28;45882;-64
2022/08/15 06:12:28;;;;;;;;;13.00;12.25;;;;;;;;5079126;28;45369;-65
2022/08/15 06:15:00;;;;;;;;;12.25;12.25;;;;;;;;5079207;28;45232;-64
2022/08/15 06:17:33;;;;;;;;;15.75;15.75;;;;;;;;5079372;28;45353;-63
2022/08/15 06:20:00;;;;;;;;;17.50;15.00;;;;;;;;5079480;28;46475;-62
2022/08/15 06:22:44;;;;;;;;;16.00;15.50;;;;;;;;5079017;27;45547;-62
2022/08/15 06:25:09;;;;;;;;;14.25;12.25;;;;;;;;5079381;28;45199;-62
2022/08/15 06:27:48;;;;;;;;;14.50;14.50;;;;;;;;5079184;28;45564;-61
2022/08/15 06:30:19;;;;;;;;;16.75;15.00;;;;;;;;5079264;28;45416;-61
2022/08/15 06:32:52;;;;;;;;;17.00;17.00;;;;;;;;5079082;28;45353;-63
2022/08/15 06:35:17;;;;;;;;;19.25;14.25;;;;;;;;5079352;28;45373;-62
2022/08/15 06:37:42;;;;;;;;;12.75;12.75;;;;;;;;5078708;27;45396;-62
2022/08/15 06:40:11;;;;;;;;;14.25;13.50;;;;;;;;5078782;28;46349;-61
2022/08/15 06:42:38;;;;;;;;;15.50;15.50;;;;;;;;5079218;28;45297;-63
2022/08/15 06:45:07;;;;;;;;;12.50;11.00;;;;;;;;5078507;28;45359;-64
2022/08/15 06:47:33;;;;;;;;;20.75;16.75;;;;;;;;5078991;28;45441;-64
2022/08/15 06:50:02;;;;;;;;;19.00;19.00;;;;;;;;5079968;28;46418;-64
2022/08/15 06:52:29;;;;;;;;;17.00;15.50;;;;;;;;5078823;28;45377;-64
2022/08/15 06:54:54;;;;;;;;;15.25;14.25;;;;;;;;5078964;28;45389;-64
2022/08/15 06:57:20;;;;;;;;;17.50;16.75;;;;;;;;5060932;27;45345;-64
2022/08/15 06:59:48;;;;;;;;;16.50;13.50;;;;;;;;5078929;28;45893;-63
2022/08/15 07:02:16;;;;;;;;;21.75;17.50;;;;;;;;5078741;27;45422;-66
2022/08/15 07:04:53;;;;;;;;;15.50;15.50;;;;;;;;5060726;28;45441;-60
2022/08/15 07:07:19;;;;;;;;;20.00;17.50;;;;;;;;5060207;27;45348;-60
2022/08/15 07:09:44;;;;;;;;;16.75;16.50;;;;;;;;5078769;27;46614;-61
2022/08/15 07:12:29;;;;;;;;;16.25;16.25;;;;;;;;5072221;27;45529;-65
2022/08/15 07:15:02;;;;;;;;;14.50;14.50;;;;;;;;5073527;27;45419;-63
2022/08/15 07:17:33;;;;;;;;;12.75;12.75;;;;;;;;5073149;28;45502;-63
2022/08/15 07:19:58;;;;;;;;;15.50;14.75;;;;;;;;5074154;28;46084;-65
2022/08/15 07:22:24;;;;;;;;;15.50;13.75;;;;;;;;5055323;27;45430;-64
2022/08/15 07:24:52;;;;;;;;;12.75;12.50;;;;;;;;5074429;27;45356;-64
2022/08/15 07:27:18;;;;;;;;;14.50;14.25;;;;;;;;5074135;28;45381;-64
2022/08/15 07:29:54;;;;;;;;;13.00;13.00;;;;;;;;5073540;28;47828;-63
2022/08/15 07:32:28;;;;;;;;;13.00;12.25;;;;;;;;5073515;28;45417;-62
2022/08/15 07:34:53;;;;;;;;;14.00;12.75;;;;;;;;5073778;28;45357;-64
2022/08/15 07:37:20;;;;;;;;;11.50;11.50;;;;;;;;5055912;27;45516;-64
2022/08/15 07:39:56;;;;;;;;;14.75;14.75;;;;;;;;5073730;28;45803;-64
2022/08/15 07:42:21;;;;;;;;;14.50;14.50;;;;;;;;5073548;28;45399;-66
2022/08/15 07:44:51;;;;;;;;;13.25;13.25;;;;;;;;5073639;28;45312;-64
2022/08/15 07:47:28;;;;;;;;;13.50;12.75;;;;;;;;5063678;28;45419;-64
2022/08/15 07:49:58;;;;;;;;;15.25;13.00;;;;;;;;5034774;28;48094;-65
2022/08/15 07:52:24;;;;;;;;;13.50;13.00;;;;;;;;5050491;28;45344;-63
2022/08/15 07:54:52;;;;;;;;;13.25;10.75;;;;;;;;5051572;27;45393;-64
2022/08/15 07:57:20;;;;;;;;;9.50;9.50;;;;;;;;5053019;28;45544;-64
2022/08/15 08:00:01;;;;;;;;;8.50;8.50;;;;;;;;5034834;27;46386;-64
2022/08/15 08:02:33;;;;;;;;;12.75;11.25;;;;;;;;5034829;28;45358;-63
2022/08/15 08:05:00;;;;;;;;;10.25;9.25;;;;;;;;5053337;27;45856;-63
2022/08/15 08:07:35;;;;;;;;;10.00;8.75;;;;;;;;5052492;27;45329;-63
2022/08/15 08:10:00;;;;;;;;;9.25;9.25;;;;;;;;5052896;27;45629;-63
2022/08/15 08:12:44;;;;;;;;;9.75;9.75;;;;;;;;5053043;27;45301;-64
2022/08/15 08:15:28;;;;;;;;;10.50;10.50;;;;;;;;5052782;28;45325;-63
2022/08/15 08:17:59;;;;;;;;;5.50;5.50;;;;;;;;5052615;28;45441;-64
2022/08/15 08:20:32;;;;;;;;;6.00;6.00;;;;;;;;5034746;28;46920;-63
2022/08/15 08:23:01;;;;;;;;;6.75;6.75;;;;;;;;5052221;28;45504;-63
2022/08/15 08:25:29;;;;;;;;;6.50;5.50;;;;;;;;5053043;27;45414;-62
2022/08/15 08:27:57;;;;;;;;;7.00;5.75;;;;;;;;5068776;28;45235;-63
2022/08/15 08:30:30;;;;;;;;;9.00;9.00;;;;;;;;5072489;28;46598;-63
2022/08/15 08:32:59;;;;;;;;;8.00;7.00;;;;;;;;5072562;28;45424;-63
2022/08/15 08:35:34;;;;;;;;;13.00;10.50;;;;;;;;5073313;28;45427;-64
2022/08/15 08:37:59;;;;;;;;;7.00;7.00;;;;;;;;5072938;28;45341;-63
2022/08/15 08:43:21;;;;;;;;;12.00;9.75;;;;;;;;4989280;28;45432;-63
2022/08/15 08:45:52;;;;;;;;;10.00;10.00;;;;;;;;4990843;27;45599;-63
2022/08/15 08:48:23;;;;;;;;;12.00;11.75;;;;;;;;4991451;27;45333;-62
2022/08/15 08:50:54;;;;;;;;;10.00;9.00;;;;;;;;4991251;28;46318;-63
2022/08/15 08:53:32;;;;;;;;;11.75;11.75;;;;;;;;4991090;28;45508;-63
2022/08/15 08:56:03;;;;;;;;;10.50;8.75;;;;;;;;4990335;28;45534;-62
2022/08/15 08:58:31;;;;;;;;;11.25;10.25;;;;;;;;4989160;27;45494;-63
2022/08/15 09:00:58;;;;;;;;;7.75;7.75;;;;;;;;4974010;28;47241;-63
2022/08/15 09:03:27;;;;;;;;;4.00;4.00;;;;;;;;4990102;28;45313;-62
2022/08/15 09:05:54;;;;;;;;;8.50;8.50;;;;;;;;4973412;28;45394;-62
2022/08/15 09:08:25;;;;;;;;;8.50;7.75;;;;;;;;4988898;28;45521;-62
2022/08/15 09:10:51;;;;;;;;;9.25;9.25;;;;;;;;4973704;28;48772;-64
2022/08/15 09:13:33;;;;;;;;;9.00;9.00;;;;;;;;4989432;27;45388;-63
2022/08/15 09:16:02;;;;;;;;;6.75;6.75;;;;;;;;4990621;28;45367;-62
2022/08/15 09:18:30;;;;;;;;;10.25;10.25;;;;;;;;4974328;28;45394;-62
2022/08/15 09:20:56;;;;;;;;;6.75;6.75;;;;;;;;5057973;28;45379;-63
2022/08/15 09:23:22;;;;;;;;;9.75;9.00;;;;;;;;5072499;27;45500;-63
2022/08/15 09:25:53;;;;;;;;;6.75;6.75;;;;;;;;5072767;28;45341;-63
2022/08/15 09:28:23;;;;;;;;;6.25;6.25;;;;;;;;5072788;28;45368;-62
2022/08/15 09:30:49;;;;;;;;;8.00;8.00;;;;;;;;5054462;28;46694;-61
2022/08/15 09:33:40;;;;;;;;;7.75;7.75;;;;;;;;5072336;28;45393;-62
2022/08/15 09:36:17;;;;;;;;;8.25;8.25;;;;;;;;5053570;28;45385;-62
2022/08/15 09:39:00;;;;;;;;;8.25;8.25;;;;;;;;5054681;28;45445;-63
2022/08/15 09:41:31;;;;;;;;;7.75;7.25;;;;;;;;5073252;28;46210;-62
2022/08/15 09:44:19;;;;;;;;;7.00;5.50;;;;;;;;5072663;28;45401;-63
2022/08/15 09:46:45;;;;;;;;;6.25;5.75;;;;;;;;5072637;28;45716;-62
2022/08/15 09:49:16;;;;;;;;;8.00;8.00;;;;;;;;5072730;28;45264;-62
2022/08/15 09:51:58;;;;;;;;;8.00;8.00;;;;;;;;5072360;28;45763;-63
2022/08/15 09:54:25;;;;;;;;;7.25;6.25;;;;;;;;5072477;28;45306;-62
2022/08/15 09:57:09;;;;;;;;;9.00;7.25;;;;;;;;5053405;28;45366;-63
2022/08/15 09:59:35;;;;;;;;;6.25;6.25;;;;;;;;5072100;28;45393;-63
2022/08/15 10:02:20;;;;;;;;;7.50;7.50;;;;;;;;5072035;28;46115;-63
2022/08/15 10:04:48;;;;;;;;;6.50;6.50;;;;;;;;5057546;28;45433;-62
2022/08/15 10:07:14;;;;;;;;;9.00;8.50;;;;;;;;5049210;27;45440;-63
2022/08/15 10:09:43;;;;;;;;;7.00;5.25;;;;;;;;5031190;28;45522;-62
2022/08/15 10:12:09;;;;;;;;;10.50;7.00;;;;;;;;5032703;27;47291;-63
2022/08/15 10:14:47;;;;;;;;;11.00;10.50;;;;;;;;5051101;27;45404;-62
2022/08/15 10:17:23;;;;;;;;;7.25;7.25;;;;;;;;5050987;28;45428;-62
2022/08/15 10:19:49;;;;;;;;;13.75;13.75;;;;;;;;5051749;27;45277;-62
2022/08/15 10:22:17;;;;;;;;;9.00;9.00;;;;;;;;5050456;28;45300;-62
2022/08/15 10:24:42;;;;;;;;;11.25;9.00;;;;;;;;5051468;28;45297;-63
2022/08/15 10:27:08;;;;;;;;;83.50;75.00;;;;;;;;5060866;28;45435;-63
2022/08/15 10:29:35;;;;;;;;;10.50;10.00;;;;;;;;5071493;28;45409;-62
2022/08/15 10:32:02;;;;;;;;;10.25;10.25;;;;;;;;5053234;28;46600;-63
2022/08/15 10:34:39;;;;;;;;;10.00;10.00;;;;;;;;5071903;28;45667;-62
2022/08/15 10:37:29;;;;;;;;;6.50;6.50;;;;;;;;5072015;28;45490;-61
2022/08/15 10:40:17;;;;;;;;;18.25;18.25;;;;;;;;5056517;28;45352;-61
2022/08/15 10:42:54;;;;;;;;;19.75;16.50;;;;;;;;5053031;28;47554;-61
2022/08/15 10:45:27;;;;;;;;;3.50;3.00;;;;;;;;5071304;28;45375;-62
2022/08/15 10:47:58;;;;;;;;;10.25;10.25;;;;;;;;5074295;28;45669;-62
2022/08/15 10:50:35;;;;;;;;;4.50;4.50;;;;;;;;5074929;28;45504;-62
2022/08/15 10:53:17;;;;;;;;;2.00;2.00;;;;;;;;5056479;27;46503;-62
2022/08/15 10:55:44;;;;;;;;;2.00;2.00;;;;;;;;5074064;28;45346;-62
2022/08/15 10:58:17;;;;;;;;;4.75;3.25;;;;;;;;5074657;28;45959;-63
2022/08/15 11:01:02;;;;;;;;;0.00;0.00;;;;;;;;5074931;28;45353;-62
2022/08/15 11:03:34;;;;;;;;;4.00;4.00;;;;;;;;5074165;28;46970;-61
2022/08/15 11:06:02;;;;;;;;;7.00;7.00;;;;;;;;5074449;28;45483;-63
2022/08/15 11:08:27;;;;;;;;;5.00;5.00;;;;;;;;5074289;28;45326;-61
2022/08/15 11:10:58;;;;;;;;;4.00;4.00;;;;;;;;5074075;28;45397;-62
2022/08/15 11:13:23;;;;;;;;;4.25;4.25;;;;;;;;5074428;28;45464;-63
2022/08/15 11:15:56;;;;;;;;;5.00;5.00;;;;;;;;5074515;28;45397;-63
2022/08/15 11:18:33;;;;;;;;;3.00;3.00;;;;;;;;5056222;27;45458;-62
2022/08/15 11:21:17;;;;;;;;;4.00;4.00;;;;;;;;5074567;28;45393;-63
2022/08/15 11:23:42;;;;;;;;;4.00;4.00;;;;;;;;5073418;27;46554;-61
2022/08/15 11:26:09;;;;;;;;;6.00;5.00;;;;;;;;5055634;28;45373;-61
2022/08/15 11:28:39;;;;;;;;;5.00;4.75;;;;;;;;5074719;28;45364;-63
2022/08/15 11:31:07;;;;;;;;;5.50;5.50;;;;;;;;5074476;28;45477;-61
2022/08/15 11:33:40;;;;;;;;;2.00;2.00;;;;;;;;5073850;28;46484;-62
2022/08/15 11:36:06;;;;;;;;;5.00;5.00;;;;;;;;5073584;28;45353;-62
2022/08/15 11:38:31;;;;;;;;;3.50;3.50;;;;;;;;5074128;28;45356;-62
2022/08/15 11:40:59;;;;;;;;;3.50;3.50;;;;;;;;5074069;28;45413;-62
2022/08/15 11:43:25;;;;;;;;;5.75;4.75;;;;;;;;5056327;27;46558;-61
2022/08/15 11:45:53;;;;;;;;;4.25;4.25;;;;;;;;5074719;28;45382;-60
2022/08/15 11:48:22;;;;;;;;;4.00;4.00;;;;;;;;5056872;27;45456;-61
2022/08/15 11:50:59;;;;;;;;;3.50;3.50;;;;;;;;5056474;28;45489;-62
2022/08/15 11:53:34;;;;;;;;;3.00;3.00;;;;;;;;5056270;27;47543;-61
2022/08/15 11:56:01;;;;;;;;;4.50;3.00;;;;;;;;5056326;28;45376;-61
2022/08/15 11:58:29;;;;;;;;;5.75;4.50;;;;;;;;5055785;28;45402;-61
2022/08/15 12:00:57;;;;;;;;;4.50;4.50;;;;;;;;5074671;28;45238;-62
2022/08/15 12:03:33;;;;;;;;;2.00;2.00;;;;;;;;5056221;28;46912;-62
2022/08/15 12:06:14;;;;;;;;;2.25;2.25;;;;;;;;5074472;28;45423;-62
2022/08/15 12:08:40;;;;;;;;;4.00;4.00;;;;;;;;5074734;28;45456;-63
2022/08/15 12:11:14;;;;;;;;;4.00;4.00;;;;;;;;5056554;28;45531;-62
2022/08/15 12:13:41;;;;;;;;;1.00;1.00;;;;;;;;5059088;28;46310;-61
2022/08/15 12:16:10;;;;;;;;;2.00;2.00;;;;;;;;5046468;28;45689;-62
2022/08/15 12:18:36;;;;;;;;;1.75;1.75;;;;;;;;5062092;27;45425;-62
2022/08/15 12:21:04;;;;;;;;;4.00;2.75;;;;;;;;5064640;28;45346;-61
2022/08/15 12:23:30;;;;;;;;;2.00;2.00;;;;;;;;5047267;27;48651;-62
2022/08/15 12:25:59;;;;;;;;;1.00;1.00;;;;;;;;5046519;27;46152;-63
2022/08/15 12:28:25;;;;;;;;;2.50;2.00;;;;;;;;5073259;27;45714;-63
2022/08/15 12:30:55;;;;;;;;;2.75;2.50;;;;;;;;5070440;28;45473;-64
2022/08/15 12:33:21;;;;;;;;;2.00;2.00;;;;;;;;5061178;28;45986;-63
2022/08/15 12:35:48;;;;;;;;;3.00;3.00;;;;;;;;5034370;28;46402;-62
2022/08/15 12:38:14;;;;;;;;;2.00;2.00;;;;;;;;5053092;28;45592;-63
2022/08/15 12:40:39;;;;;;;;;1.00;1.00;;;;;;;;5034983;28;45600;-61
2022/08/15 12:43:05;;;;;;;;;2.25;2.25;;;;;;;;5035001;28;45622;-63
2022/08/15 12:45:30;;;;;;;;;1.50;1.50;;;;;;;;5052475;28;45366;-62
2022/08/15 12:47:55;;;;;;;;;3.00;2.00;;;;;;;;5053179;28;45443;-62
2022/08/15 12:50:20;;;;;;;;;1.75;1.75;;;;;;;;5052760;28;45346;-63
2022/08/15 12:52:48;;;;;;;;;1.75;1.75;;;;;;;;5034970;28;47414;-61
2022/08/15 12:55:13;;;;;;;;;2.00;2.00;;;;;;;;5042351;27;45506;-63
2022/08/15 12:57:38;;;;;;;;;2.00;2.00;;;;;;;;5056532;28;45487;-62
2022/08/15 13:00:05;;;;;;;;;2.00;2.00;;;;;;;;5061626;27;45380;-61
2022/08/15 13:02:30;;;;;;;;;0.00;0.00;;;;;;;;5038452;28;48999;-62
2022/08/15 13:04:56;;;;;;;;;1.00;1.00;;;;;;;;5052503;28;45296;-62
2022/08/15 13:07:23;;;;;;;;;2.00;2.00;;;;;;;;5052925;28;45386;-62
2022/08/15 13:09:48;;;;;;;;;2.00;2.00;;;;;;;;5050987;28;45681;-62
2022/08/15 13:12:13;;;;;;;;;1.75;1.75;;;;;;;;5052477;28;46301;-62
2022/08/15 13:14:39;;;;;;;;;2.25;2.00;;;;;;;;5052907;28;45532;-61
2022/08/15 13:17:05;;;;;;;;;3.00;2.25;;;;;;;;5052865;28;45426;-62
2022/08/15 13:25:19;;;;;;;;;3.25;3.00;;;;;;;;5051823;28;45297;-63
2022/08/15 13:27:47;;;;;;;;;5.25;5.00;;;;;;;;5066615;28;45320;-61
2022/08/15 13:30:14;;;;;;;;;5.25;5.25;;;;;;;;5072536;28;45360;-60
2022/08/15 13:32:39;;;;;;;;;4.50;4.50;;;;;;;;5072212;28;46438;-64
2022/08/15 13:35:04;;;;;;;;;4.25;4.25;;;;;;;;5072589;28;45281;-65
2022/08/15 13:37:30;;;;;;;;;4.75;4.25;;;;;;;;5072372;28;45344;-59
2022/08/15 13:39:56;;;;;;;;;2.50;2.50;;;;;;;;5072546;28;45389;-59
2022/08/15 13:42:22;;;;;;;;;4.25;4.25;;;;;;;;5064908;27;45705;-62
2022/08/15 13:44:47;;;;;;;;;7.00;7.00;;;;;;;;5051597;28;45381;-62
2022/08/15 13:47:18;;;;;;;;;6.50;5.00;;;;;;;;5052115;28;45338;-62
2022/08/15 13:49:44;;;;;;;;;7.00;6.00;;;;;;;;5034142;28;45404;-62
2022/08/15 13:52:10;;;;;;;;;5.00;5.00;;;;;;;;5051916;28;46547;-63
2022/08/15 13:54:35;;;;;;;;;4.50;4.50;;;;;;;;5052194;27;45382;-62
2022/08/15 13:57:00;;;;;;;;;5.00;5.00;;;;;;;;5052037;28;45952;-63
2022/08/15 13:59:26;;;;;;;;;6.50;6.50;;;;;;;;5062658;28;45381;-62
2022/08/15 14:01:53;;;;;;;;;6.00;5.00;;;;;;;;5072140;28;46032;-62
2022/08/15 14:04:26;;;;;;;;;7.75;7.75;;;;;;;;5054041;27;46400;-61
2022/08/15 14:06:53;;;;;;;;;6.00;5.25;;;;;;;;5053580;28;45409;-62
2022/08/15 14:09:18;;;;;;;;;7.25;7.25;;;;;;;;5071266;28;45336;-62
2022/08/15 14:11:44;;;;;;;;;6.75;6.75;;;;;;;;5071902;28;46759;-61
2022/08/15 14:14:10;;;;;;;;;8.25;6.50;;;;;;;;5071849;28;45376;-61
2022/08/15 14:16:36;;;;;;;;;8.00;8.00;;;;;;;;5071930;28;45710;-60
2022/08/15 14:19:04;;;;;;;;;8.75;8.75;;;;;;;;5071779;27;45458;-61
2022/08/15 14:21:30;;;;;;;;;6.50;6.50;;;;;;;;5054370;28;48058;-62
2022/08/15 14:23:56;;;;;;;;;8.25;7.25;;;;;;;;5074574;28;45439;-61
2022/08/15 14:26:23;;;;;;;;;7.25;6.00;;;;;;;;5067980;28;45516;-61
2022/08/15 14:28:49;;;;;;;;;8.00;7.00;;;;;;;;5057499;28;45560;-61
2022/08/15 14:31:15;;;;;;;;;9.00;8.00;;;;;;;;5054368;27;47571;-61
2022/08/15 14:33:41;;;;;;;;;9.00;8.00;;;;;;;;5054371;27;46205;-63
2022/08/15 14:36:06;;;;;;;;;8.25;7.75;;;;;;;;5055017;27;45404;-63
2022/08/15 14:38:32;;;;;;;;;8.50;8.25;;;;;;;;5054447;28;45514;-61
2022/08/15 14:40:58;;;;;;;;;7.25;7.25;;;;;;;;5054767;28;46485;-62
2022/08/15 14:43:23;;;;;;;;;7.50;7.50;;;;;;;;5054529;28;46749;-62
2022/08/15 14:45:50;;;;;;;;;8.00;8.00;;;;;;;;5065842;27;45436;-62